Terminal Aerodrome Forecast
Issued by NWS Wilmington, NC

Home | Current Version | Previous Version | Text Only | Print | Product List | Glossary On
Versions: 1 2 3 4 5 6 7 8 9 10 11 12 13 14 15 16 17 18 19 20 21 22 23 24 25
190
FTUS42 KILM 042320
TAFLBT
TAF
KLBT 042320Z 0500/0524 29005KT P6SM SCT070
     FM051200 31008KT P6SM SCT070
     FM051500 32012G18KT P6SM VCSH BKN050
     FM051800 29012G20KT P6SM VCSH BKN050=

USA.gov is the U.S. government's official web portal to all federal, state and local government web resources and services.